createdAt,value
2023-03-15T00:01:16.337Z,83.03
2023-03-15T00:03:43.472Z,83.72
2023-03-15T00:06:10.594Z,84.09
2023-03-15T00:08:37.584Z,84.86
2023-03-15T00:11:04.492Z,85.15
2023-03-15T00:13:31.661Z,85.52
2023-03-15T00:16:00.758Z,86.73
2023-03-15T00:18:27.627Z,88.22
2023-03-15T00:20:54.365Z,89.43
2023-03-15T00:23:20.910Z,91.20
2023-03-15T00:25:49.166Z,92.50
2023-03-15T00:28:15.882Z,94.35
2023-03-15T00:30:42.854Z,96.58
2023-03-15T00:33:13.639Z,98.28
2023-03-15T00:35:42.685Z,99.86
2023-03-15T00:38:09.651Z,100.00
2023-03-15T00:40:37.444Z,100.00
2023-03-15T00:43:04.148Z,100.00
2023-03-15T00:45:30.566Z,100.00
2023-03-15T00:47:57.107Z,100.00
2023-03-15T00:50:23.704Z,100.00
2023-03-15T00:52:50.516Z,100.00
2023-03-15T00:55:19.041Z,100.00
2023-03-15T00:57:47.801Z,100.00
2023-03-15T01:00:24.372Z,100.00
2023-03-15T01:02:52.840Z,100.00
2023-03-15T01:05:20.130Z,100.00
2023-03-15T01:07:47.238Z,100.00
2023-03-15T01:10:15.337Z,100.00
2023-03-15T01:12:41.912Z,100.00
2023-03-15T01:15:13.420Z,100.00
2023-03-15T01:17:40.972Z,100.00
2023-03-15T01:20:08.745Z,100.00
2023-03-15T01:22:35.505Z,100.00
2023-03-15T01:25:01.975Z,100.00
2023-03-15T01:27:28.355Z,100.00
2023-03-15T01:29:55.025Z,100.00
2023-03-15T01:32:21.486Z,100.00
2023-03-15T01:34:48.061Z,100.00
2023-03-15T01:37:14.805Z,100.00
2023-03-15T01:39:44.292Z,100.00
2023-03-15T01:42:11.476Z,100.00
2023-03-15T01:44:47.854Z,100.00
2023-03-15T01:47:14.255Z,100.00
2023-03-15T01:49:40.954Z,100.00
2023-03-15T01:52:12.983Z,100.00
2023-03-15T01:55:10.024Z,100.00
2023-03-15T01:57:46.703Z,100.00
2023-03-15T02:00:16.519Z,100.00
2023-03-15T02:02:59.228Z,100.00
2023-03-15T02:05:33.977Z,100.00
2023-03-15T02:08:05.916Z,100.00
2023-03-15T02:10:38.943Z,100.00
2023-03-15T02:13:06.850Z,100.00
2023-03-15T02:15:33.339Z,100.00
2023-03-15T02:18:03.231Z,100.00
2023-03-15T02:20:54.052Z,100.00
2023-03-15T02:23:22.542Z,100.00
2023-03-15T02:26:22.596Z,100.00
2023-03-15T02:28:50.663Z,100.00
2023-03-15T02:31:19.734Z,100.00
2023-03-15T02:33:49.656Z,100.00
2023-03-15T02:36:26.537Z,100.00
2023-03-15T02:38:54.154Z,100.00
2023-03-15T02:41:33.360Z,100.00
2023-03-15T02:44:05.279Z,100.00
2023-03-15T02:46:32.165Z,100.00
2023-03-15T02:48:59.889Z,100.00
2023-03-15T02:51:29.663Z,100.00
2023-03-15T02:53:56.927Z,100.00
2023-03-15T02:56:24.433Z,100.00
2023-03-15T02:58:51.073Z,100.00
2023-03-15T03:01:18.732Z,100.00
2023-03-15T03:03:46.390Z,100.00
2023-03-15T03:06:15.077Z,100.00
2023-03-15T03:08:41.938Z,100.00
2023-03-15T03:11:09.427Z,100.00
2023-03-15T03:13:37.068Z,100.00
2023-03-15T03:16:05.398Z,100.00
2023-03-15T03:18:35.625Z,100.00
2023-03-15T03:21:05.651Z,100.00
2023-03-15T03:23:34.120Z,100.00
2023-03-15T03:26:01.254Z,100.00
2023-03-15T03:28:30.055Z,100.00
2023-03-15T03:30:58.492Z,100.00
2023-03-15T03:33:26.556Z,100.00
2023-03-15T03:35:54.057Z,100.00
2023-03-15T03:38:20.693Z,100.00
2023-03-15T03:40:53.891Z,100.00
2023-03-15T03:43:20.305Z,100.00
2023-03-15T03:45:46.813Z,100.00
2023-03-15T03:48:14.594Z,100.00
2023-03-15T03:50:40.966Z,100.00
2023-03-15T03:53:07.522Z,100.00
2023-03-15T03:55:34.968Z,100.00
2023-03-15T03:58:01.420Z,100.00
2023-03-15T04:00:45.436Z,100.00
2023-03-15T04:03:12.887Z,100.00
2023-03-15T04:05:44.856Z,100.00
2023-03-15T04:08:16.407Z,100.00
2023-03-15T04:10:43.192Z,100.00
2023-03-15T04:13:10.300Z,100.00
2023-03-15T04:15:37.009Z,100.00
2023-03-15T04:18:05.726Z,100.00
2023-03-15T04:20:37.406Z,100.00
2023-03-15T04:23:04.017Z,100.00
2023-03-15T04:25:57.835Z,100.00
2023-03-15T04:28:42.976Z,100.00
2023-03-15T04:31:28.913Z,100.00
2023-03-15T04:34:31.211Z,100.00
2023-03-15T04:37:11.417Z,100.00
2023-03-15T04:39:52.294Z,100.00
2023-03-15T04:42:39.952Z,100.00
2023-03-15T04:45:26.762Z,100.00
2023-03-15T04:48:11.977Z,100.00
2023-03-15T04:50:46.024Z,100.00
2023-03-15T04:53:31.341Z,100.00
2023-03-15T04:56:18.133Z,100.00
2023-03-15T04:59:03.977Z,100.00
2023-03-15T05:01:51.612Z,100.00
2023-03-15T05:04:28.189Z,100.00
2023-03-15T05:07:09.412Z,100.00
2023-03-15T05:09:54.737Z,100.00
2023-03-15T05:12:39.907Z,100.00
2023-03-15T05:15:22.485Z,100.00
2023-03-15T05:17:54.891Z,100.00
2023-03-15T05:20:47.808Z,100.00
2023-03-15T05:23:36.866Z,100.00
2023-03-15T05:26:10.168Z,100.00
2023-03-15T05:29:08.606Z,100.00
2023-03-15T05:31:46.377Z,100.00
2023-03-15T05:34:36.820Z,100.00
2023-03-15T05:37:23.038Z,100.00
2023-03-15T05:40:10.187Z,100.00
2023-03-15T05:42:47.156Z,100.00
2023-03-15T05:45:22.793Z,100.00
2023-03-15T05:47:55.161Z,100.00
2023-03-15T05:50:57.040Z,100.00
2023-03-15T05:53:34.928Z,100.00
2023-03-15T05:56:14.866Z,100.00
2023-03-15T05:58:53.342Z,100.00
2023-03-15T06:01:38.247Z,100.00
2023-03-15T06:04:18.899Z,100.00
2023-03-15T06:06:45.774Z,100.00
2023-03-15T06:09:12.854Z,100.00
2023-03-15T06:11:39.550Z,100.00
2023-03-15T06:14:07.655Z,100.00
2023-03-15T06:16:44.524Z,100.00
2023-03-15T06:19:11.569Z,100.00
2023-03-15T06:21:38.082Z,100.00
2023-03-15T06:24:10.454Z,100.00
2023-03-15T06:26:37.541Z,100.00
2023-03-15T06:29:06.295Z,100.00
2023-03-15T06:31:33.154Z,100.00
2023-03-15T06:34:05.842Z,100.00
2023-03-15T06:36:33.791Z,100.00
2023-03-15T06:39:02.797Z,100.00
2023-03-15T06:41:29.275Z,100.00
2023-03-15T06:44:03.622Z,100.00
2023-03-15T06:46:30.211Z,100.00
2023-03-15T06:48:56.830Z,100.00
2023-03-15T06:51:23.604Z,100.00
2023-03-15T06:53:50.037Z,100.00
2023-03-15T06:56:16.636Z,100.00
2023-03-15T06:58:43.284Z,100.00
2023-03-15T07:01:13.387Z,100.00
2023-03-15T07:03:40.900Z,100.00
2023-03-15T07:06:07.459Z,100.00
2023-03-15T07:08:34.695Z,100.00
2023-03-15T07:11:03.118Z,100.00
2023-03-15T07:13:29.830Z,100.00
2023-03-15T07:15:56.738Z,100.00
2023-03-15T07:18:23.693Z,100.00
2023-03-15T07:21:01.119Z,100.00
2023-03-15T07:23:28.357Z,100.00
2023-03-15T07:25:55.991Z,100.00
2023-03-15T07:28:24.716Z,100.00
2023-03-15T07:31:05.559Z,100.00
2023-03-15T07:33:34.054Z,100.00
2023-03-15T07:36:01.343Z,100.00
2023-03-15T07:38:31.167Z,100.00
2023-03-15T07:40:58.078Z,100.00
2023-03-15T07:43:24.553Z,100.00
2023-03-15T07:45:59.455Z,100.00
2023-03-15T07:48:26.163Z,100.00
2023-03-15T07:50:52.592Z,100.00
2023-03-15T07:53:19.004Z,100.00
2023-03-15T07:55:47.193Z,100.00
2023-03-15T07:58:14.029Z,100.00
2023-03-15T08:00:41.033Z,100.00
2023-03-15T08:03:07.693Z,100.00
2023-03-15T08:05:35.327Z,100.00
2023-03-15T08:08:01.782Z,100.00
2023-03-15T08:10:28.337Z,100.00
2023-03-15T08:12:54.856Z,100.00
2023-03-15T08:15:21.466Z,100.00
2023-03-15T08:17:48.660Z,100.00
2023-03-15T08:20:17.591Z,100.00
2023-03-15T08:22:46.270Z,100.00
2023-03-15T08:25:15.217Z,100.00
2023-03-15T08:27:44.660Z,100.00
2023-03-15T08:30:13.710Z,100.00
2023-03-15T08:32:41.973Z,100.00
2023-03-15T08:35:09.129Z,100.00
2023-03-15T08:37:35.671Z,100.00
2023-03-15T08:40:07.613Z,100.00
2023-03-15T08:42:34.026Z,100.00
2023-03-15T08:45:01.930Z,100.00
2023-03-15T08:47:28.680Z,100.00
2023-03-15T08:49:55.055Z,100.00
2023-03-15T08:52:21.556Z,100.00
2023-03-15T08:54:48.571Z,100.00
2023-03-15T08:57:14.992Z,100.00
2023-03-15T08:59:41.391Z,100.00
2023-03-15T09:02:11.479Z,100.00
2023-03-15T09:04:37.995Z,100.00
2023-03-15T09:07:04.513Z,100.00
2023-03-15T09:09:30.879Z,100.00
2023-03-15T09:11:57.517Z,100.00
2023-03-15T09:14:23.942Z,100.00
2023-03-15T09:16:50.390Z,100.00
2023-03-15T09:19:16.803Z,100.00
2023-03-15T09:21:45.047Z,100.00
2023-03-15T09:24:11.462Z,100.00
2023-03-15T09:26:37.935Z,100.00
2023-03-15T09:29:04.570Z,100.00
2023-03-15T09:31:31.967Z,100.00
2023-03-15T09:33:58.778Z,100.00
2023-03-15T09:36:25.211Z,100.00
2023-03-15T09:38:51.611Z,100.00
2023-03-15T09:41:33.716Z,100.00
2023-03-15T09:44:30.847Z,100.00
2023-03-15T09:47:06.093Z,100.00
2023-03-15T09:49:41.686Z,100.00
2023-03-15T09:52:14.134Z,100.00
2023-03-15T09:54:43.590Z,100.00
2023-03-15T09:57:18.598Z,100.00
2023-03-15T09:59:49.020Z,99.67
2023-03-15T10:02:29.016Z,99.26
2023-03-15T10:05:06.241Z,97.73
2023-03-15T10:07:32.857Z,95.96
2023-03-15T10:09:59.297Z,95.44
2023-03-15T10:12:41.270Z,95.77
2023-03-15T10:15:16.691Z,97.10
2023-03-15T10:18:04.052Z,97.09
2023-03-15T10:20:44.466Z,97.70
2023-03-15T10:23:22.615Z,99.24
2023-03-15T10:25:51.676Z,95.51
2023-03-15T10:28:24.491Z,95.33
2023-03-15T10:30:51.998Z,95.75
2023-03-15T10:33:36.057Z,98.33
2023-03-15T10:36:13.454Z,93.44
2023-03-15T10:38:41.720Z,90.92
2023-03-15T10:41:11.550Z,89.01
2023-03-15T10:43:41.478Z,89.19
2023-03-15T10:46:22.761Z,84.16
2023-03-15T10:48:58.622Z,85.11
2023-03-15T10:51:37.414Z,81.86
2023-03-15T10:54:11.301Z,83.58
2023-03-15T10:56:45.269Z,80.77
2023-03-15T10:59:17.808Z,84.55
2023-03-15T11:01:48.055Z,84.73
2023-03-15T11:04:18.033Z,88.26
2023-03-15T11:06:49.666Z,83.68
2023-03-15T11:09:27.040Z,73.66
2023-03-15T11:12:02.543Z,70.36
2023-03-15T11:14:44.727Z,68.01
2023-03-15T11:17:24.339Z,68.67
2023-03-15T11:19:57.225Z,69.51
2023-03-15T11:22:23.898Z,69.10
2023-03-15T11:24:51.597Z,65.79
2023-03-15T11:27:22.622Z,63.38
2023-03-15T11:29:54.697Z,62.58
2023-03-15T11:32:24.101Z,63.39
2023-03-15T11:35:14.078Z,65.35
2023-03-15T11:37:47.592Z,72.85
2023-03-15T11:40:21.969Z,74.66
2023-03-15T11:42:54.788Z,75.23
2023-03-15T11:45:34.122Z,57.60
2023-03-15T11:48:29.794Z,59.03
2023-03-15T11:50:58.126Z,55.11
2023-03-15T11:53:34.947Z,50.03
2023-03-15T11:56:25.210Z,55.94
2023-03-15T11:59:15.780Z,43.81
2023-03-15T12:01:46.387Z,51.21
2023-03-15T12:04:25.505Z,43.84
2023-03-15T12:06:54.632Z,44.99
2023-03-15T12:09:33.134Z,45.28
2023-03-15T12:12:01.885Z,45.00
2023-03-15T12:14:29.826Z,46.80
2023-03-15T12:17:24.250Z,51.72
2023-03-15T12:20:09.408Z,50.25
2023-03-15T12:22:37.812Z,43.17
2023-03-15T12:25:56.919Z,42.26
2023-03-15T12:28:30.548Z,45.01
2023-03-15T12:30:59.257Z,42.01
2023-03-15T12:33:28.041Z,43.38
2023-03-15T12:36:07.801Z,37.69
2023-03-15T12:38:41.719Z,36.16
2023-03-15T12:41:29.693Z,40.64
2023-03-15T12:44:27.119Z,38.77
2023-03-15T12:46:55.661Z,37.33
2023-03-15T12:49:24.740Z,35.09
2023-03-15T12:52:01.052Z,34.48
2023-03-15T12:54:46.593Z,36.77
2023-03-15T12:57:16.262Z,33.82
2023-03-15T12:59:58.000Z,31.00
2023-03-15T13:02:44.642Z,29.75
2023-03-15T13:05:19.262Z,30.77
2023-03-15T13:08:09.765Z,31.13
2023-03-15T13:10:39.872Z,30.41
2023-03-15T13:13:14.767Z,28.38
2023-03-15T13:15:54.931Z,28.21
2023-03-15T13:18:24.188Z,27.06
2023-03-15T13:21:13.736Z,28.92
2023-03-15T13:23:44.134Z,29.92
2023-03-15T13:26:33.204Z,27.42
2023-03-15T13:29:21.024Z,29.25
2023-03-15T13:32:00.941Z,29.74
2023-03-15T13:34:31.003Z,29.59
2023-03-15T13:36:58.841Z,28.46
2023-03-15T13:39:28.042Z,27.21
2023-03-15T13:42:23.731Z,28.03
2023-03-15T13:45:08.921Z,27.63
2023-03-15T13:47:35.312Z,27.36
2023-03-15T13:50:05.809Z,28.90
2023-03-15T13:52:32.582Z,29.01
2023-03-15T13:55:00.177Z,28.90
2023-03-15T13:57:26.877Z,28.17
2023-03-15T14:00:13.243Z,28.69
2023-03-15T14:02:42.660Z,29.30
2023-03-15T14:05:16.544Z,29.20
2023-03-15T14:07:48.437Z,28.54
2023-03-15T14:10:32.669Z,29.64
2023-03-15T14:13:26.779Z,30.76
2023-03-15T14:15:59.654Z,30.18
2023-03-15T14:18:32.304Z,28.63
2023-03-15T14:21:05.728Z,28.80
2023-03-15T14:23:36.243Z,28.20
2023-03-15T14:26:05.376Z,28.21
2023-03-15T14:28:33.149Z,29.09
2023-03-15T14:31:02.178Z,29.89
2023-03-15T14:33:39.739Z,30.79
2023-03-15T14:36:10.117Z,30.06
2023-03-15T14:38:40.012Z,30.62
2023-03-15T14:41:33.508Z,30.50
2023-03-15T14:44:02.809Z,31.26
2023-03-15T14:46:31.276Z,30.85
2023-03-15T14:48:58.149Z,29.10
2023-03-15T14:51:27.362Z,30.68
2023-03-15T14:53:56.490Z,29.98
2023-03-15T14:56:24.269Z,30.54
2023-03-15T14:58:53.880Z,30.57
2023-03-15T15:01:26.334Z,30.65
2023-03-15T15:04:02.820Z,30.66
2023-03-15T15:06:31.907Z,32.00
2023-03-15T15:09:00.055Z,31.60
2023-03-15T15:11:26.767Z,32.88
2023-03-15T15:13:54.193Z,32.17
2023-03-15T15:16:20.716Z,32.72
2023-03-15T15:18:47.240Z,31.26
2023-03-15T15:21:19.577Z,31.39
2023-03-15T15:23:57.890Z,31.10
2023-03-15T15:26:27.731Z,31.52
2023-03-15T15:28:54.473Z,32.09
2023-03-15T15:31:23.749Z,33.48
2023-03-15T15:33:54.705Z,33.50
2023-03-15T15:36:32.384Z,33.14
2023-03-15T15:39:05.777Z,33.98
2023-03-15T15:41:32.981Z,33.86
2023-03-15T15:43:59.991Z,33.64
2023-03-15T15:46:26.571Z,34.19
2023-03-15T15:48:53.433Z,33.73
2023-03-15T15:51:45.863Z,33.77
2023-03-15T15:54:18.812Z,34.93
2023-03-15T15:56:49.030Z,34.20
2023-03-15T15:59:17.478Z,35.26
2023-03-15T16:01:58.864Z,34.96
2023-03-15T16:04:26.732Z,33.07
2023-03-15T16:06:58.996Z,34.90
2023-03-15T16:09:29.964Z,34.78
2023-03-15T16:11:56.459Z,33.47
2023-03-15T16:14:22.861Z,33.58
2023-03-15T16:16:49.278Z,35.96
2023-03-15T16:19:15.690Z,37.50
2023-03-15T16:21:47.369Z,36.31
2023-03-15T16:24:18.682Z,37.45
2023-03-15T16:26:46.852Z,39.42
2023-03-15T16:29:23.879Z,36.84
2023-03-15T16:31:51.263Z,37.11
2023-03-15T16:34:19.557Z,36.40
2023-03-15T16:36:49.562Z,38.20
2023-03-15T16:39:16.794Z,36.04
2023-03-15T16:41:43.339Z,38.06
2023-03-15T16:44:17.378Z,37.48
2023-03-15T16:46:44.750Z,36.08
2023-03-15T16:49:12.064Z,36.70
2023-03-15T16:51:43.647Z,36.40
2023-03-15T16:54:21.740Z,36.57
2023-03-15T16:56:51.201Z,36.80
2023-03-15T16:59:18.286Z,37.26
2023-03-15T17:01:45.889Z,37.59
2023-03-15T17:04:13.657Z,43.27
2023-03-15T17:06:40.537Z,40.61
2023-03-15T17:09:17.992Z,42.84
2023-03-15T17:11:46.744Z,47.37
2023-03-15T17:14:19.331Z,49.90
2023-03-15T17:16:46.025Z,51.28
2023-03-15T17:19:13.748Z,52.92
2023-03-15T17:21:41.826Z,54.91
2023-03-15T17:24:10.038Z,54.41
2023-03-15T17:26:37.704Z,55.04
2023-03-15T17:29:04.649Z,56.58
2023-03-15T17:31:33.211Z,55.07
2023-03-15T17:33:59.639Z,52.09
2023-03-15T17:36:29.166Z,53.31
2023-03-15T17:38:56.568Z,56.69
2023-03-15T17:41:32.233Z,54.91
2023-03-15T17:43:59.582Z,56.88
2023-03-15T17:46:30.083Z,58.23
2023-03-15T17:48:58.696Z,58.48
2023-03-15T17:51:31.664Z,60.61
2023-03-15T17:53:59.452Z,59.64
2023-03-15T17:56:27.684Z,61.92
2023-03-15T17:58:54.833Z,62.30
2023-03-15T18:01:29.542Z,59.06
2023-03-15T18:03:56.076Z,61.39
2023-03-15T18:06:23.275Z,62.73
2023-03-15T18:08:50.239Z,64.46
2023-03-15T18:11:33.740Z,65.11
2023-03-15T18:14:00.626Z,66.25
2023-03-15T18:16:27.625Z,63.37
2023-03-15T18:18:54.037Z,61.78
2023-03-15T18:21:24.020Z,65.19
2023-03-15T18:23:51.282Z,61.34
2023-03-15T18:26:19.038Z,62.14
2023-03-15T18:28:48.690Z,62.23
2023-03-15T18:31:18.396Z,62.79
2023-03-15T18:33:46.479Z,64.11
2023-03-15T18:36:13.174Z,63.16
2023-03-15T18:38:40.576Z,61.78
2023-03-15T18:41:20.487Z,65.26
2023-03-15T18:43:49.742Z,62.13
2023-03-15T18:46:20.750Z,62.24
2023-03-15T18:48:47.860Z,61.24
2023-03-15T18:51:17.216Z,59.97
2023-03-15T18:53:44.813Z,62.92
2023-03-15T18:56:17.441Z,59.13
2023-03-15T18:58:43.866Z,59.51
2023-03-15T19:01:10.564Z,61.52
2023-03-15T19:03:37.043Z,61.15
2023-03-15T19:06:09.253Z,63.16
2023-03-15T19:08:35.872Z,64.33
2023-03-15T19:11:03.670Z,65.00
2023-03-15T19:13:30.695Z,63.99
2023-03-15T19:15:57.811Z,63.96
2023-03-15T19:18:25.010Z,63.70
2023-03-15T19:20:52.484Z,64.10
2023-03-15T19:23:20.605Z,65.72
2023-03-15T19:25:47.857Z,67.12
2023-03-15T19:28:14.951Z,67.34
2023-03-15T19:30:42.079Z,69.23
2023-03-15T19:33:08.984Z,71.32
2023-03-15T19:35:36.110Z,72.87
2023-03-15T19:38:03.953Z,74.27
2023-03-15T19:40:30.412Z,71.11
2023-03-15T19:42:56.889Z,72.28
2023-03-15T19:45:23.604Z,73.09
2023-03-15T19:47:50.021Z,73.61
2023-03-15T19:50:16.760Z,72.94
2023-03-15T19:52:46.331Z,74.62
2023-03-15T19:55:18.427Z,75.98
2023-03-15T19:57:45.654Z,72.56
2023-03-15T20:00:17.023Z,69.26
2023-03-15T20:02:44.650Z,68.47
2023-03-15T20:05:14.902Z,67.58
2023-03-15T20:07:45.984Z,66.25
2023-03-15T20:10:13.494Z,67.15
2023-03-15T20:12:42.416Z,64.50
2023-03-15T20:15:11.186Z,66.19
2023-03-15T20:17:38.698Z,66.03
2023-03-15T20:20:13.106Z,65.93
2023-03-15T20:22:41.666Z,67.49
2023-03-15T20:25:10.071Z,66.93
2023-03-15T20:27:37.170Z,67.00
2023-03-15T20:30:04.831Z,67.55
2023-03-15T20:32:31.361Z,67.45
2023-03-15T20:34:57.776Z,67.10
2023-03-15T20:37:25.432Z,68.10
2023-03-15T20:39:51.857Z,68.25
2023-03-15T20:42:20.823Z,69.01
2023-03-15T20:44:47.598Z,70.09
2023-03-15T20:47:14.459Z,68.84
2023-03-15T20:49:42.317Z,69.25
2023-03-15T20:52:09.022Z,69.69
2023-03-15T20:54:36.607Z,69.94
2023-03-15T20:57:04.109Z,70.32
2023-03-15T20:59:31.589Z,70.94
2023-03-15T21:01:57.971Z,70.83
2023-03-15T21:04:25.986Z,70.83
2023-03-15T21:06:52.662Z,71.54
2023-03-15T21:09:19.093Z,72.09
2023-03-15T21:11:45.478Z,72.42
2023-03-15T21:14:11.881Z,73.27
2023-03-15T21:16:38.344Z,71.26
2023-03-15T21:19:04.800Z,70.89
2023-03-15T21:21:31.218Z,69.61
2023-03-15T21:23:57.921Z,69.54
2023-03-15T21:26:25.680Z,69.86
2023-03-15T21:28:52.075Z,68.64
2023-03-15T21:31:18.580Z,70.27
2023-03-15T21:33:45.026Z,70.63
2023-03-15T21:36:11.446Z,70.96
2023-03-15T21:38:38.057Z,69.82
2023-03-15T21:41:09.161Z,70.97
2023-03-15T21:43:36.715Z,69.29
2023-03-15T21:46:16.145Z,69.97
2023-03-15T21:48:42.687Z,70.83
2023-03-15T21:51:09.433Z,70.39
2023-03-15T21:53:36.603Z,69.80
2023-03-15T21:56:03.917Z,70.69
2023-03-15T21:58:31.239Z,71.00
2023-03-15T22:01:04.447Z,70.89
2023-03-15T22:03:31.826Z,71.56
2023-03-15T22:05:58.250Z,71.59
2023-03-15T22:08:25.318Z,72.21
2023-03-15T22:10:53.335Z,72.09
2023-03-15T22:13:19.972Z,73.04
2023-03-15T22:15:46.607Z,73.41
2023-03-15T22:18:13.184Z,73.20
2023-03-15T22:20:39.590Z,73.18
2023-03-15T22:23:06.080Z,72.07
2023-03-15T22:25:33.361Z,72.08
2023-03-15T22:28:01.618Z,72.07
2023-03-15T22:30:28.399Z,71.43
2023-03-15T22:32:54.939Z,71.87
2023-03-15T22:35:21.393Z,72.00
2023-03-15T22:37:49.209Z,71.30
2023-03-15T22:40:16.168Z,72.13
2023-03-15T22:42:43.931Z,72.32
2023-03-15T22:45:10.924Z,72.19
2023-03-15T22:47:37.526Z,72.56
2023-03-15T22:50:04.099Z,72.61
2023-03-15T22:52:30.534Z,73.56
2023-03-15T22:54:57.004Z,74.32
2023-03-15T22:57:23.673Z,74.00
2023-03-15T22:59:50.040Z,74.26
2023-03-15T23:02:16.521Z,74.11
2023-03-15T23:04:45.040Z,74.11
2023-03-15T23:07:12.341Z,74.95
2023-03-15T23:09:38.817Z,74.32
2023-03-15T23:12:05.738Z,74.33
2023-03-15T23:14:32.567Z,73.98
2023-03-15T23:16:59.115Z,73.63
2023-03-15T23:19:25.589Z,73.50
2023-03-15T23:21:52.073Z,73.72
2023-03-15T23:24:19.637Z,73.75
2023-03-15T23:26:46.168Z,74.25
2023-03-15T23:29:12.558Z,75.17
2023-03-15T23:31:40.450Z,74.70
2023-03-15T23:34:08.593Z,74.12
2023-03-15T23:36:35.476Z,73.63
2023-03-15T23:39:01.884Z,73.69
2023-03-15T23:41:28.264Z,73.35
2023-03-15T23:43:54.724Z,72.94
2023-03-15T23:46:23.368Z,72.69
2023-03-15T23:48:52.250Z,72.70
2023-03-15T23:51:19.114Z,72.25
2023-03-15T23:53:45.918Z,72.05
2023-03-15T23:56:12.341Z,72.09
2023-03-15T23:58:38.794Z,72.02
